sensor_id;sensor_type;location;lat;lon;timestamp;temperature;humidity
18384;DHT22;9318;48.644;9.456;2023-03-23T00:02:13;12.40;99.90
18384;DHT22;9318;48.644;9.456;2023-03-23T00:04:40;12.30;99.90
18384;DHT22;9318;48.644;9.456;2023-03-23T00:07:09;12.20;99.90
18384;DHT22;9318;48.644;9.456;2023-03-23T00:09:37;12.20;99.90
18384;DHT22;9318;48.644;9.456;2023-03-23T00:12:06;12.30;99.90
18384;DHT22;9318;48.644;9.456;2023-03-23T00:14:33;12.30;99.90
18384;DHT22;9318;48.644;9.456;2023-03-23T00:17:07;12.30;99.90
18384;DHT22;9318;48.644;9.456;2023-03-23T00:19:36;12.30;99.90
18384;DHT22;9318;48.644;9.456;2023-03-23T00:22:13;12.30;99.90
18384;DHT22;9318;48.644;9.456;2023-03-23T00:24:40;12.20;99.90
18384;DHT22;9318;48.644;9.456;2023-03-23T00:27:06;12.10;99.90
18384;DHT22;9318;48.644;9.456;2023-03-23T00:29:34;12.20;99.90
18384;DHT22;9318;48.644;9.456;2023-03-23T00:32:01;12.10;99.90
18384;DHT22;9318;48.644;9.456;2023-03-23T00:34:28;12.10;99.90
18384;DHT22;9318;48.644;9.456;2023-03-23T00:36:58;12.10;99.90
18384;DHT22;9318;48.644;9.456;2023-03-23T00:39:27;12.10;99.90
18384;DHT22;9318;48.644;9.456;2023-03-23T00:41:55;12.20;99.90
18384;DHT22;9318;48.644;9.456;2023-03-23T00:44:26;12.20;99.90
18384;DHT22;9318;48.644;9.456;2023-03-23T00:46:54;12.20;99.90
18384;DHT22;9318;48.644;9.456;2023-03-23T00:49:22;12.20;99.90
18384;DHT22;9318;48.644;9.456;2023-03-23T00:51:54;12.20;99.90
18384;DHT22;9318;48.644;9.456;2023-03-23T00:54:22;12.30;99.90
18384;DHT22;9318;48.644;9.456;2023-03-23T00:56:51;12.30;99.90
18384;DHT22;9318;48.644;9.456;2023-03-23T00:59:18;12.30;99.90
18384;DHT22;9318;48.644;9.456;2023-03-23T01:01:45;12.30;99.90
18384;DHT22;9318;48.644;9.456;2023-03-23T01:04:12;12.30;99.90
18384;DHT22;9318;48.644;9.456;2023-03-23T01:06:41;12.30;99.90
18384;DHT22;9318;48.644;9.456;2023-03-23T01:09:10;12.40;99.90
18384;DHT22;9318;48.644;9.456;2023-03-23T01:11:40;12.40;99.90
18384;DHT22;9318;48.644;9.456;2023-03-23T01:14:09;12.40;99.90
18384;DHT22;9318;48.644;9.456;2023-03-23T01:16:36;12.40;99.90
18384;DHT22;9318;48.644;9.456;2023-03-23T01:19:03;12.40;99.90
18384;DHT22;9318;48.644;9.456;2023-03-23T01:21:29;12.40;99.90
18384;DHT22;9318;48.644;9.456;2023-03-23T01:23:56;12.40;99.90
18384;DHT22;9318;48.644;9.456;2023-03-23T01:26:25;12.40;99.90
18384;DHT22;9318;48.644;9.456;2023-03-23T01:28:52;12.40;99.90
18384;DHT22;9318;48.644;9.456;2023-03-23T01:31:23;12.40;99.90
18384;DHT22;9318;48.644;9.456;2023-03-23T01:33:50;12.40;99.90
18384;DHT22;9318;48.644;9.456;2023-03-23T01:36:21;12.40;99.90
18384;DHT22;9318;48.644;9.456;2023-03-23T01:38:49;12.30;99.90
18384;DHT22;9318;48.644;9.456;2023-03-23T01:41:17;12.30;99.90
18384;DHT22;9318;48.644;9.456;2023-03-23T01:43:57;12.40;99.90
18384;DHT22;9318;48.644;9.456;2023-03-23T01:46:27;12.30;99.90
18384;DHT22;9318;48.644;9.456;2023-03-23T01:48:56;12.30;99.90
18384;DHT22;9318;48.644;9.456;2023-03-23T01:51:24;12.30;99.90
18384;DHT22;9318;48.644;9.456;2023-03-23T01:53:55;12.30;99.90
18384;DHT22;9318;48.644;9.456;2023-03-23T01:56:25;12.20;99.90
18384;DHT22;9318;48.644;9.456;2023-03-23T01:58:53;12.20;99.90
18384;DHT22;9318;48.644;9.456;2023-03-23T02:01:21;12.20;99.90
18384;DHT22;9318;48.644;9.456;2023-03-23T02:03:52;12.20;99.90
18384;DHT22;9318;48.644;9.456;2023-03-23T02:06:21;12.20;99.90
18384;DHT22;9318;48.644;9.456;2023-03-23T02:08:49;12.20;99.90
18384;DHT22;9318;48.644;9.456;2023-03-23T02:11:18;12.20;99.90
18384;DHT22;9318;48.644;9.456;2023-03-23T02:13:46;12.20;99.90
18384;DHT22;9318;48.644;9.456;2023-03-23T02:16:20;12.20;99.90
18384;DHT22;9318;48.644;9.456;2023-03-23T02:19:12;12.30;99.90
18384;DHT22;9318;48.644;9.456;2023-03-23T02:22:02;12.30;99.90
18384;DHT22;9318;48.644;9.456;2023-03-23T02:24:54;12.30;99.90
18384;DHT22;9318;48.644;9.456;2023-03-23T02:27:50;12.30;99.90
18384;DHT22;9318;48.644;9.456;2023-03-23T02:30:49;12.30;99.90
18384;DHT22;9318;48.644;9.456;2023-03-23T02:33:35;12.30;99.90
18384;DHT22;9318;48.644;9.456;2023-03-23T02:36:07;12.30;99.90
18384;DHT22;9318;48.644;9.456;2023-03-23T02:38:39;12.30;99.90
18384;DHT22;9318;48.644;9.456;2023-03-23T02:41:10;12.30;99.90
18384;DHT22;9318;48.644;9.456;2023-03-23T02:43:40;12.30;99.90
18384;DHT22;9318;48.644;9.456;2023-03-23T02:46:10;12.30;99.90
18384;DHT22;9318;48.644;9.456;2023-03-23T02:48:39;12.40;99.90
18384;DHT22;9318;48.644;9.456;2023-03-23T02:51:08;12.40;99.90
18384;DHT22;9318;48.644;9.456;2023-03-23T02:53:39;12.40;99.90
18384;DHT22;9318;48.644;9.456;2023-03-23T02:56:07;12.40;99.90
18384;DHT22;9318;48.644;9.456;2023-03-23T02:58:35;12.40;99.90
18384;DHT22;9318;48.644;9.456;2023-03-23T03:01:14;12.40;99.90
18384;DHT22;9318;48.644;9.456;2023-03-23T03:03:43;12.50;99.90
18384;DHT22;9318;48.644;9.456;2023-03-23T03:06:17;12.50;99.90
18384;DHT22;9318;48.644;9.456;2023-03-23T03:08:50;12.50;99.90
18384;DHT22;9318;48.644;9.456;2023-03-23T03:11:19;12.50;99.90
18384;DHT22;9318;48.644;9.456;2023-03-23T03:13:51;12.60;99.90
18384;DHT22;9318;48.644;9.456;2023-03-23T03:16:24;12.60;99.90
18384;DHT22;9318;48.644;9.456;2023-03-23T03:18:59;12.70;99.90
18384;DHT22;9318;48.644;9.456;2023-03-23T03:21:30;12.70;99.90
18384;DHT22;9318;48.644;9.456;2023-03-23T03:24:02;12.70;99.90
18384;DHT22;9318;48.644;9.456;2023-03-23T03:26:30;12.70;99.90
18384;DHT22;9318;48.644;9.456;2023-03-23T03:29:00;12.70;99.90
18384;DHT22;9318;48.644;9.456;2023-03-23T03:31:30;12.70;99.90
18384;DHT22;9318;48.644;9.456;2023-03-23T03:34:00;12.70;99.90
18384;DHT22;9318;48.644;9.456;2023-03-23T03:36:28;12.80;99.90
18384;DHT22;9318;48.644;9.456;2023-03-23T03:39:00;12.80;99.90
18384;DHT22;9318;48.644;9.456;2023-03-23T03:41:33;12.90;99.90
18384;DHT22;9318;48.644;9.456;2023-03-23T03:44:00;12.90;99.90
18384;DHT22;9318;48.644;9.456;2023-03-23T03:46:27;12.90;99.90
18384;DHT22;9318;48.644;9.456;2023-03-23T03:48:56;12.90;99.90
18384;DHT22;9318;48.644;9.456;2023-03-23T03:51:26;12.90;99.90
18384;DHT22;9318;48.644;9.456;2023-03-23T03:53:53;12.90;99.90
18384;DHT22;9318;48.644;9.456;2023-03-23T03:56:21;12.90;99.90
18384;DHT22;9318;48.644;9.456;2023-03-23T03:58:49;13.00;99.90
18384;DHT22;9318;48.644;9.456;2023-03-23T04:01:16;13.00;99.90
18384;DHT22;9318;48.644;9.456;2023-03-23T04:03:43;13.00;99.90
18384;DHT22;9318;48.644;9.456;2023-03-23T04:06:10;13.00;99.90
18384;DHT22;9318;48.644;9.456;2023-03-23T04:08:39;13.00;99.90
18384;DHT22;9318;48.644;9.456;2023-03-23T04:11:07;13.00;99.90
18384;DHT22;9318;48.644;9.456;2023-03-23T04:13:34;13.00;99.90
18384;DHT22;9318;48.644;9.456;2023-03-23T04:16:00;13.00;99.90
18384;DHT22;9318;48.644;9.456;2023-03-23T04:18:27;13.00;99.90
18384;DHT22;9318;48.644;9.456;2023-03-23T04:20:54;13.00;99.90
18384;DHT22;9318;48.644;9.456;2023-03-23T04:23:26;13.10;99.90
18384;DHT22;9318;48.644;9.456;2023-03-23T04:25:54;13.20;99.90
18384;DHT22;9318;48.644;9.456;2023-03-23T04:28:23;13.20;99.90
18384;DHT22;9318;48.644;9.456;2023-03-23T04:30:50;13.20;99.90
18384;DHT22;9318;48.644;9.456;2023-03-23T04:33:19;13.30;99.90
18384;DHT22;9318;48.644;9.456;2023-03-23T04:35:47;13.30;99.90
18384;DHT22;9318;48.644;9.456;2023-03-23T04:38:15;13.30;99.90
18384;DHT22;9318;48.644;9.456;2023-03-23T04:40:46;13.40;99.90
18384;DHT22;9318;48.644;9.456;2023-03-23T04:43:14;13.40;99.90
18384;DHT22;9318;48.644;9.456;2023-03-23T04:45:41;13.50;99.90
18384;DHT22;9318;48.644;9.456;2023-03-23T04:48:11;13.40;99.90
18384;DHT22;9318;48.644;9.456;2023-03-23T04:50:39;13.40;99.90
18384;DHT22;9318;48.644;9.456;2023-03-23T04:53:06;13.40;99.90
18384;DHT22;9318;48.644;9.456;2023-03-23T04:55:35;13.40;99.90
18384;DHT22;9318;48.644;9.456;2023-03-23T04:58:02;13.40;99.90
18384;DHT22;9318;48.644;9.456;2023-03-23T05:00:31;13.30;99.90
18384;DHT22;9318;48.644;9.456;2023-03-23T05:02:58;13.40;99.90
18384;DHT22;9318;48.644;9.456;2023-03-23T05:05:26;13.30;99.90
18384;DHT22;9318;48.644;9.456;2023-03-23T05:07:56;13.30;99.90
18384;DHT22;9318;48.644;9.456;2023-03-23T05:10:23;13.30;99.90
18384;DHT22;9318;48.644;9.456;2023-03-23T05:12:50;13.30;99.90
18384;DHT22;9318;48.644;9.456;2023-03-23T05:15:17;13.30;99.90
18384;DHT22;9318;48.644;9.456;2023-03-23T05:17:45;13.30;99.90
18384;DHT22;9318;48.644;9.456;2023-03-23T05:20:13;13.30;99.90
18384;DHT22;9318;48.644;9.456;2023-03-23T05:22:44;13.30;99.90
18384;DHT22;9318;48.644;9.456;2023-03-23T05:25:13;13.30;99.90
18384;DHT22;9318;48.644;9.456;2023-03-23T05:27:40;13.30;99.90
18384;DHT22;9318;48.644;9.456;2023-03-23T05:30:09;13.30;99.90
18384;DHT22;9318;48.644;9.456;2023-03-23T05:32:37;13.20;99.90
18384;DHT22;9318;48.644;9.456;2023-03-23T05:35:05;13.10;99.90
18384;DHT22;9318;48.644;9.456;2023-03-23T05:37:32;12.90;99.90
18384;DHT22;9318;48.644;9.456;2023-03-23T05:39:59;12.90;99.90
18384;DHT22;9318;48.644;9.456;2023-03-23T05:42:31;12.90;99.90
18384;DHT22;9318;48.644;9.456;2023-03-23T05:44:58;12.90;99.90
18384;DHT22;9318;48.644;9.456;2023-03-23T05:47:26;12.80;99.90
18384;DHT22;9318;48.644;9.456;2023-03-23T05:49:52;12.80;99.90
18384;DHT22;9318;48.644;9.456;2023-03-23T05:52:21;12.70;99.90
18384;DHT22;9318;48.644;9.456;2023-03-23T05:54:49;12.70;99.90
18384;DHT22;9318;48.644;9.456;2023-03-23T05:57:16;12.70;99.90
18384;DHT22;9318;48.644;9.456;2023-03-23T05:59:44;12.70;99.90
18384;DHT22;9318;48.644;9.456;2023-03-23T06:02:11;12.70;99.90
18384;DHT22;9318;48.644;9.456;2023-03-23T06:04:39;12.70;99.90
18384;DHT22;9318;48.644;9.456;2023-03-23T06:07:06;12.60;99.90
18384;DHT22;9318;48.644;9.456;2023-03-23T06:09:34;12.60;99.90
18384;DHT22;9318;48.644;9.456;2023-03-23T06:12:01;12.50;99.90
18384;DHT22;9318;48.644;9.456;2023-03-23T06:14:30;12.50;99.90
18384;DHT22;9318;48.644;9.456;2023-03-23T06:16:56;12.50;99.90
18384;DHT22;9318;48.644;9.456;2023-03-23T06:19:23;12.50;99.90
18384;DHT22;9318;48.644;9.456;2023-03-23T06:21:52;12.60;99.90
18384;DHT22;9318;48.644;9.456;2023-03-23T06:24:19;12.60;99.90
18384;DHT22;9318;48.644;9.456;2023-03-23T06:26:48;12.60;99.90
18384;DHT22;9318;48.644;9.456;2023-03-23T06:29:15;12.70;99.90
18384;DHT22;9318;48.644;9.456;2023-03-23T06:31:46;12.70;99.90
18384;DHT22;9318;48.644;9.456;2023-03-23T06:34:14;12.80;99.90
18384;DHT22;9318;48.644;9.456;2023-03-23T06:36:41;12.90;99.90
18384;DHT22;9318;48.644;9.456;2023-03-23T06:39:09;12.90;99.90
18384;DHT22;9318;48.644;9.456;2023-03-23T06:41:36;12.90;99.90
18384;DHT22;9318;48.644;9.456;2023-03-23T06:44:05;12.90;99.90
18384;DHT22;9318;48.644;9.456;2023-03-23T06:46:34;12.90;99.90
18384;DHT22;9318;48.644;9.456;2023-03-23T06:49:00;13.00;99.90
18384;DHT22;9318;48.644;9.456;2023-03-23T06:51:27;13.00;99.90
18384;DHT22;9318;48.644;9.456;2023-03-23T06:53:54;13.00;99.90
18384;DHT22;9318;48.644;9.456;2023-03-23T06:56:21;12.90;99.90
18384;DHT22;9318;48.644;9.456;2023-03-23T06:58:47;12.90;99.90
18384;DHT22;9318;48.644;9.456;2023-03-23T07:01:15;13.00;99.90
18384;DHT22;9318;48.644;9.456;2023-03-23T07:03:42;12.90;99.90
18384;DHT22;9318;48.644;9.456;2023-03-23T07:06:10;12.80;99.90
18384;DHT22;9318;48.644;9.456;2023-03-23T07:08:37;12.80;99.90
18384;DHT22;9318;48.644;9.456;2023-03-23T07:11:04;12.80;99.90
18384;DHT22;9318;48.644;9.456;2023-03-23T07:13:31;12.80;99.90
18384;DHT22;9318;48.644;9.456;2023-03-23T07:15:58;12.90;99.90
18384;DHT22;9318;48.644;9.456;2023-03-23T07:18:26;13.00;99.90
18384;DHT22;9318;48.644;9.456;2023-03-23T07:20:53;13.00;99.90
18384;DHT22;9318;48.644;9.456;2023-03-23T07:23:20;13.10;99.90
18384;DHT22;9318;48.644;9.456;2023-03-23T07:25:47;13.10;99.90
18384;DHT22;9318;48.644;9.456;2023-03-23T07:28:14;13.20;99.90
18384;DHT22;9318;48.644;9.456;2023-03-23T07:30:41;13.20;99.90
18384;DHT22;9318;48.644;9.456;2023-03-23T07:33:08;13.30;99.90
18384;DHT22;9318;48.644;9.456;2023-03-23T07:35:37;13.30;99.90
18384;DHT22;9318;48.644;9.456;2023-03-23T07:38:05;13.40;99.90
18384;DHT22;9318;48.644;9.456;2023-03-23T07:40:33;13.40;99.90
18384;DHT22;9318;48.644;9.456;2023-03-23T07:43:01;13.50;99.90
18384;DHT22;9318;48.644;9.456;2023-03-23T07:45:28;13.50;99.90
18384;DHT22;9318;48.644;9.456;2023-03-23T07:47:55;13.60;99.90
18384;DHT22;9318;48.644;9.456;2023-03-23T07:50:22;13.60;99.90
18384;DHT22;9318;48.644;9.456;2023-03-23T07:52:53;13.60;99.90
18384;DHT22;9318;48.644;9.456;2023-03-23T07:55:20;13.70;99.90
18384;DHT22;9318;48.644;9.456;2023-03-23T07:57:48;13.70;99.90
18384;DHT22;9318;48.644;9.456;2023-03-23T08:00:16;13.80;99.90
18384;DHT22;9318;48.644;9.456;2023-03-23T08:02:44;13.90;99.90
18384;DHT22;9318;48.644;9.456;2023-03-23T08:05:11;14.00;99.90
18384;DHT22;9318;48.644;9.456;2023-03-23T08:07:38;14.00;99.90
18384;DHT22;9318;48.644;9.456;2023-03-23T08:10:09;14.10;99.90
18384;DHT22;9318;48.644;9.456;2023-03-23T08:12:37;14.20;99.90
18384;DHT22;9318;48.644;9.456;2023-03-23T08:15:05;14.40;99.90
18384;DHT22;9318;48.644;9.456;2023-03-23T08:17:32;14.50;99.90
18384;DHT22;9318;48.644;9.456;2023-03-23T08:20:00;14.70;99.90
18384;DHT22;9318;48.644;9.456;2023-03-23T08:22:33;14.80;99.90
18384;DHT22;9318;48.644;9.456;2023-03-23T08:25:01;15.00;99.90
18384;DHT22;9318;48.644;9.456;2023-03-23T08:27:30;15.10;99.90
18384;DHT22;9318;48.644;9.456;2023-03-23T08:29:56;15.20;99.90
18384;DHT22;9318;48.644;9.456;2023-03-23T08:32:24;15.30;99.90
18384;DHT22;9318;48.644;9.456;2023-03-23T08:34:51;15.40;99.90
18384;DHT22;9318;48.644;9.456;2023-03-23T08:37:18;15.60;99.90
18384;DHT22;9318;48.644;9.456;2023-03-23T08:39:45;15.70;99.90
18384;DHT22;9318;48.644;9.456;2023-03-23T08:42:12;15.80;99.90
18384;DHT22;9318;48.644;9.456;2023-03-23T08:44:40;15.90;99.90
18384;DHT22;9318;48.644;9.456;2023-03-23T08:47:07;16.00;99.90
18384;DHT22;9318;48.644;9.456;2023-03-23T08:49:34;16.00;99.90
18384;DHT22;9318;48.644;9.456;2023-03-23T08:52:02;16.00;99.90
18384;DHT22;9318;48.644;9.456;2023-03-23T08:54:29;16.00;99.90
18384;DHT22;9318;48.644;9.456;2023-03-23T08:56:59;16.10;99.90
18384;DHT22;9318;48.644;9.456;2023-03-23T08:59:26;16.00;99.90
18384;DHT22;9318;48.644;9.456;2023-03-23T09:01:54;16.00;99.90
18384;DHT22;9318;48.644;9.456;2023-03-23T09:04:21;16.00;99.90
18384;DHT22;9318;48.644;9.456;2023-03-23T09:06:48;15.90;99.90
18384;DHT22;9318;48.644;9.456;2023-03-23T09:09:15;15.80;99.90
18384;DHT22;9318;48.644;9.456;2023-03-23T09:11:41;15.70;99.90
18384;DHT22;9318;48.644;9.456;2023-03-23T09:14:08;15.70;99.90
18384;DHT22;9318;48.644;9.456;2023-03-23T09:16:35;15.60;99.90
18384;DHT22;9318;48.644;9.456;2023-03-23T09:19:03;15.60;99.90
18384;DHT22;9318;48.644;9.456;2023-03-23T09:21:30;15.50;99.90
18384;DHT22;9318;48.644;9.456;2023-03-23T09:23:57;15.50;99.90
18384;DHT22;9318;48.644;9.456;2023-03-23T09:26:24;15.40;99.90
18384;DHT22;9318;48.644;9.456;2023-03-23T09:28:51;15.40;99.90
18384;DHT22;9318;48.644;9.456;2023-03-23T09:31:18;15.40;99.90
18384;DHT22;9318;48.644;9.456;2023-03-23T09:33:47;15.40;99.90
18384;DHT22;9318;48.644;9.456;2023-03-23T09:36:19;15.40;99.90
18384;DHT22;9318;48.644;9.456;2023-03-23T09:38:46;15.40;99.90
18384;DHT22;9318;48.644;9.456;2023-03-23T09:44:17;15.40;99.90
18384;DHT22;9318;48.644;9.456;2023-03-23T09:46:55;15.50;99.90
18384;DHT22;9318;48.644;9.456;2023-03-23T09:49:25;15.60;99.90
18384;DHT22;9318;48.644;9.456;2023-03-23T09:51:57;15.60;99.90
18384;DHT22;9318;48.644;9.456;2023-03-23T09:54:27;15.60;99.90
18384;DHT22;9318;48.644;9.456;2023-03-23T09:56:58;15.60;99.90
18384;DHT22;9318;48.644;9.456;2023-03-23T09:59:29;15.50;99.90
18384;DHT22;9318;48.644;9.456;2023-03-23T10:01:59;15.60;99.90
18384;DHT22;9318;48.644;9.456;2023-03-23T10:04:35;15.50;99.90
18384;DHT22;9318;48.644;9.456;2023-03-23T10:07:12;15.60;99.90
18384;DHT22;9318;48.644;9.456;2023-03-23T10:09:39;15.60;99.90
18384;DHT22;9318;48.644;9.456;2023-03-23T10:12:13;15.60;99.90
18384;DHT22;9318;48.644;9.456;2023-03-23T10:14:52;15.70;99.90
18384;DHT22;9318;48.644;9.456;2023-03-23T10:17:27;15.80;99.90
18384;DHT22;9318;48.644;9.456;2023-03-23T10:19:59;15.80;99.90
18384;DHT22;9318;48.644;9.456;2023-03-23T10:22:38;15.80;99.90
18384;DHT22;9318;48.644;9.456;2023-03-23T10:25:15;15.80;99.90
18384;DHT22;9318;48.644;9.456;2023-03-23T10:27:45;15.80;99.90
18384;DHT22;9318;48.644;9.456;2023-03-23T10:30:17;15.80;99.90
18384;DHT22;9318;48.644;9.456;2023-03-23T10:32:48;15.80;99.90
18384;DHT22;9318;48.644;9.456;2023-03-23T10:35:19;15.90;99.90
18384;DHT22;9318;48.644;9.456;2023-03-23T10:37:52;16.00;99.90
18384;DHT22;9318;48.644;9.456;2023-03-23T10:40:22;16.10;99.90
18384;DHT22;9318;48.644;9.456;2023-03-23T10:42:51;16.10;99.90
18384;DHT22;9318;48.644;9.456;2023-03-23T10:45:21;16.20;99.90
18384;DHT22;9318;48.644;9.456;2023-03-23T10:47:53;16.20;99.90
18384;DHT22;9318;48.644;9.456;2023-03-23T10:50:25;16.20;99.90
18384;DHT22;9318;48.644;9.456;2023-03-23T10:52:56;16.40;99.90
18384;DHT22;9318;48.644;9.456;2023-03-23T10:55:34;16.50;99.90
18384;DHT22;9318;48.644;9.456;2023-03-23T10:58:03;16.60;99.90
18384;DHT22;9318;48.644;9.456;2023-03-23T11:00:31;16.60;99.90
18384;DHT22;9318;48.644;9.456;2023-03-23T11:03:00;16.60;99.90
18384;DHT22;9318;48.644;9.456;2023-03-23T11:05:34;16.50;99.90
18384;DHT22;9318;48.644;9.456;2023-03-23T11:08:02;16.50;99.90
18384;DHT22;9318;48.644;9.456;2023-03-23T11:10:36;16.50;99.90
18384;DHT22;9318;48.644;9.456;2023-03-23T11:13:03;16.50;99.90
18384;DHT22;9318;48.644;9.456;2023-03-23T11:15:37;16.40;99.90
18384;DHT22;9318;48.644;9.456;2023-03-23T11:18:05;16.40;99.90
18384;DHT22;9318;48.644;9.456;2023-03-23T11:20:36;16.40;99.90
18384;DHT22;9318;48.644;9.456;2023-03-23T11:23:11;16.50;99.90
18384;DHT22;9318;48.644;9.456;2023-03-23T11:25:53;16.50;99.90
18384;DHT22;9318;48.644;9.456;2023-03-23T11:28:20;16.60;99.90
18384;DHT22;9318;48.644;9.456;2023-03-23T11:30:47;16.60;99.90
18384;DHT22;9318;48.644;9.456;2023-03-23T11:33:14;16.60;99.90
18384;DHT22;9318;48.644;9.456;2023-03-23T11:35:44;16.60;99.90
18384;DHT22;9318;48.644;9.456;2023-03-23T11:38:17;16.60;99.90
18384;DHT22;9318;48.644;9.456;2023-03-23T11:40:48;16.60;99.90
18384;DHT22;9318;48.644;9.456;2023-03-23T11:43:19;16.50;99.90
18384;DHT22;9318;48.644;9.456;2023-03-23T11:45:50;16.50;99.90
18384;DHT22;9318;48.644;9.456;2023-03-23T11:48:24;16.40;99.90
18384;DHT22;9318;48.644;9.456;2023-03-23T11:50:54;16.30;99.90
18384;DHT22;9318;48.644;9.456;2023-03-23T11:53:37;16.30;99.90
18384;DHT22;9318;48.644;9.456;2023-03-23T11:56:11;16.40;99.90
18384;DHT22;9318;48.644;9.456;2023-03-23T11:58:40;16.40;99.90
18384;DHT22;9318;48.644;9.456;2023-03-23T12:01:13;16.50;99.90
18384;DHT22;9318;48.644;9.456;2023-03-23T12:04:00;16.50;99.90
18384;DHT22;9318;48.644;9.456;2023-03-23T12:06:36;16.50;99.90
18384;DHT22;9318;48.644;9.456;2023-03-23T12:09:17;16.60;99.90
18384;DHT22;9318;48.644;9.456;2023-03-23T12:11:55;16.70;99.90
18384;DHT22;9318;48.644;9.456;2023-03-23T12:14:30;16.80;99.90
18384;DHT22;9318;48.644;9.456;2023-03-23T12:17:06;16.80;99.90
18384;DHT22;9318;48.644;9.456;2023-03-23T12:19:43;16.90;99.90
18384;DHT22;9318;48.644;9.456;2023-03-23T12:22:26;16.90;99.90
18384;DHT22;9318;48.644;9.456;2023-03-23T12:25:05;16.90;99.90
18384;DHT22;9318;48.644;9.456;2023-03-23T12:27:41;17.00;99.90
18384;DHT22;9318;48.644;9.456;2023-03-23T12:30:22;17.00;99.90
18384;DHT22;9318;48.644;9.456;2023-03-23T12:32:58;17.00;99.90
18384;DHT22;9318;48.644;9.456;2023-03-23T12:35:46;17.00;99.90
18384;DHT22;9318;48.644;9.456;2023-03-23T12:38:37;17.00;99.90
18384;DHT22;9318;48.644;9.456;2023-03-23T12:41:16;17.00;99.90
18384;DHT22;9318;48.644;9.456;2023-03-23T12:43:50;17.00;99.90
18384;DHT22;9318;48.644;9.456;2023-03-23T12:46:45;16.90;99.90
18384;DHT22;9318;48.644;9.456;2023-03-23T12:49:18;17.00;99.90
18384;DHT22;9318;48.644;9.456;2023-03-23T12:51:51;17.00;99.90
18384;DHT22;9318;48.644;9.456;2023-03-23T12:54:25;16.90;99.90
18384;DHT22;9318;48.644;9.456;2023-03-23T12:57:00;16.90;99.90
18384;DHT22;9318;48.644;9.456;2023-03-23T12:59:32;16.90;99.90
18384;DHT22;9318;48.644;9.456;2023-03-23T13:02:10;16.90;99.90
18384;DHT22;9318;48.644;9.456;2023-03-23T13:04:41;17.00;99.90
18384;DHT22;9318;48.644;9.456;2023-03-23T13:07:16;17.00;99.90
18384;DHT22;9318;48.644;9.456;2023-03-23T13:09:50;17.10;99.90
18384;DHT22;9318;48.644;9.456;2023-03-23T13:12:22;17.10;99.90
18384;DHT22;9318;48.644;9.456;2023-03-23T13:14:56;17.10;99.90
18384;DHT22;9318;48.644;9.456;2023-03-23T13:17:44;17.10;99.90
18384;DHT22;9318;48.644;9.456;2023-03-23T13:20:34;17.10;99.90
18384;DHT22;9318;48.644;9.456;2023-03-23T13:23:05;17.00;99.90
18384;DHT22;9318;48.644;9.456;2023-03-23T13:25:46;17.00;99.90
18384;DHT22;9318;48.644;9.456;2023-03-23T13:28:17;17.10;99.90
18384;DHT22;9318;48.644;9.456;2023-03-23T13:30:57;17.10;99.90
18384;DHT22;9318;48.644;9.456;2023-03-23T13:33:25;17.10;99.90
18384;DHT22;9318;48.644;9.456;2023-03-23T13:35:55;17.10;99.90
18384;DHT22;9318;48.644;9.456;2023-03-23T13:38:24;17.10;99.90
18384;DHT22;9318;48.644;9.456;2023-03-23T13:40:52;17.10;99.90
18384;DHT22;9318;48.644;9.456;2023-03-23T13:43:27;17.00;99.90
18384;DHT22;9318;48.644;9.456;2023-03-23T13:45:55;17.00;99.90
18384;DHT22;9318;48.644;9.456;2023-03-23T13:48:41;17.00;99.90
18384;DHT22;9318;48.644;9.456;2023-03-23T13:51:25;17.10;99.90
18384;DHT22;9318;48.644;9.456;2023-03-23T13:54:06;17.20;99.90
18384;DHT22;9318;48.644;9.456;2023-03-23T13:56:39;17.10;99.90
18384;DHT22;9318;48.644;9.456;2023-03-23T13:59:13;17.10;99.90
18384;DHT22;9318;48.644;9.456;2023-03-23T14:01:41;17.10;99.90
18384;DHT22;9318;48.644;9.456;2023-03-23T14:04:12;17.10;99.90
18384;DHT22;9318;48.644;9.456;2023-03-23T14:06:39;17.10;99.90
18384;DHT22;9318;48.644;9.456;2023-03-23T14:09:12;17.10;99.90
18384;DHT22;9318;48.644;9.456;2023-03-23T14:11:47;17.00;99.90
18384;DHT22;9318;48.644;9.456;2023-03-23T14:14:22;17.00;99.90
18384;DHT22;9318;48.644;9.456;2023-03-23T14:16:50;17.00;99.90
18384;DHT22;9318;48.644;9.456;2023-03-23T14:19:22;17.00;99.90
18384;DHT22;9318;48.644;9.456;2023-03-23T14:21:52;17.00;99.90
18384;DHT22;9318;48.644;9.456;2023-03-23T14:24:21;17.00;99.90
18384;DHT22;9318;48.644;9.456;2023-03-23T14:26:50;17.00;99.90
18384;DHT22;9318;48.644;9.456;2023-03-23T14:29:20;17.00;99.90
18384;DHT22;9318;48.644;9.456;2023-03-23T14:31:52;17.00;99.90
18384;DHT22;9318;48.644;9.456;2023-03-23T14:34:21;17.00;99.90
18384;DHT22;9318;48.644;9.456;2023-03-23T14:36:49;17.00;99.90
18384;DHT22;9318;48.644;9.456;2023-03-23T14:39:21;17.00;99.90
18384;DHT22;9318;48.644;9.456;2023-03-23T14:41:48;17.00;99.90
18384;DHT22;9318;48.644;9.456;2023-03-23T14:44:20;17.00;99.90
18384;DHT22;9318;48.644;9.456;2023-03-23T14:46:48;17.00;99.90
18384;DHT22;9318;48.644;9.456;2023-03-23T14:49:18;17.00;99.90
18384;DHT22;9318;48.644;9.456;2023-03-23T14:51:50;16.90;99.90
18384;DHT22;9318;48.644;9.456;2023-03-23T14:54:22;16.90;99.90
18384;DHT22;9318;48.644;9.456;2023-03-23T14:56:49;16.90;99.90
18384;DHT22;9318;48.644;9.456;2023-03-23T14:59:18;16.90;99.90
18384;DHT22;9318;48.644;9.456;2023-03-23T15:01:46;16.90;99.90
18384;DHT22;9318;48.644;9.456;2023-03-23T15:04:16;16.90;99.90
18384;DHT22;9318;48.644;9.456;2023-03-23T15:06:45;16.90;99.90
18384;DHT22;9318;48.644;9.456;2023-03-23T15:09:15;17.00;99.90
18384;DHT22;9318;48.644;9.456;2023-03-23T15:11:51;17.00;99.90
18384;DHT22;9318;48.644;9.456;2023-03-23T15:14:22;17.10;99.90
18384;DHT22;9318;48.644;9.456;2023-03-23T15:16:50;17.10;99.90
18384;DHT22;9318;48.644;9.456;2023-03-23T15:19:21;17.10;99.90
18384;DHT22;9318;48.644;9.456;2023-03-23T15:21:51;17.10;99.90
18384;DHT22;9318;48.644;9.456;2023-03-23T15:24:27;17.10;99.90
18384;DHT22;9318;48.644;9.456;2023-03-23T15:27:07;17.10;99.90
18384;DHT22;9318;48.644;9.456;2023-03-23T15:29:46;17.20;99.90
18384;DHT22;9318;48.644;9.456;2023-03-23T15:32:13;17.20;99.90
18384;DHT22;9318;48.644;9.456;2023-03-23T15:34:46;17.20;99.90
18384;DHT22;9318;48.644;9.456;2023-03-23T15:37:19;17.20;99.90
18384;DHT22;9318;48.644;9.456;2023-03-23T15:39:47;17.20;99.90
18384;DHT22;9318;48.644;9.456;2023-03-23T15:42:25;17.20;99.90
18384;DHT22;9318;48.644;9.456;2023-03-23T15:45:14;17.20;99.90
18384;DHT22;9318;48.644;9.456;2023-03-23T15:47:46;17.10;99.90
18384;DHT22;9318;48.644;9.456;2023-03-23T15:50:15;17.10;99.90
18384;DHT22;9318;48.644;9.456;2023-03-23T15:52:42;17.10;99.90
18384;DHT22;9318;48.644;9.456;2023-03-23T15:55:20;17.10;99.90
18384;DHT22;9318;48.644;9.456;2023-03-23T15:57:48;17.10;99.90
18384;DHT22;9318;48.644;9.456;2023-03-23T16:00:18;17.10;99.90
18384;DHT22;9318;48.644;9.456;2023-03-23T16:02:46;17.00;99.90
18384;DHT22;9318;48.644;9.456;2023-03-23T16:05:13;17.00;99.90
18384;DHT22;9318;48.644;9.456;2023-03-23T16:07:40;17.00;99.90
18384;DHT22;9318;48.644;9.456;2023-03-23T16:10:15;17.00;99.90